MET'MAP v2.0
soon released !

Expected late october,
this new version will be
more efficient, smarter,
and hosted on a brand new
server x3 powerfull...
...and still free !


Not compatible ?
Try the mobile version !

LOG IN : | Subscribe | Disclaimer | Who is Orbifly ? |
ICAO code :

TAF - EKRN Bornholm Ronne - 05 Jun 2020 09:34 UTC - Data Source NOAA   


- Airport Elevation : 52 ft
- IATA code : RNN
- No reported NOTAMs.


EKRN - Bornholm Ronne

Latest METAR recorded : 2015/08/11 07:50 EKRN 110750Z AUTO 10005KT 9999NDV FEW061/// 23/16 Q1017
TAF TAF EKRN
Valid from the 05 at 06:00 until the 05 at 15:00 UTC


050523Z 0506/0515 27012KT 9999 BKN012
TEMPO 0506/0507 BKN008
BECMG 0507/0509 SCT012

Source NOAA


MET'MAP, your aeronautical weather chart ! - Copyright ORBIFLY December 2007

Programming & Development : Alexandra Zaïnal
Co-Developer : Marc-Olivier Méhu
Technical & hardware support : Manuel Goepfert
Concept & Financing : Baudouin d'Aumeries